sensor_id;sensor_type;location;lat;lon;timestamp;pressure;altitude;pressure_sealevel;temperature;humidity
63552;BME280;49698;48.072;7.800;2022-08-30T00:01:25;99495.53;;;18.61;84.52
63552;BME280;49698;48.072;7.800;2022-08-30T00:03:53;99500.38;;;18.55;84.75
63552;BME280;49698;48.072;7.800;2022-08-30T00:06:22;99492.88;;;18.52;84.51
63552;BME280;49698;48.072;7.800;2022-08-30T00:08:50;99496.25;;;18.49;84.45
63552;BME280;49698;48.072;7.800;2022-08-30T00:11:24;99495.34;;;18.45;84.59
63552;BME280;49698;48.072;7.800;2022-08-30T00:13:55;99502.91;;;18.39;84.81
63552;BME280;49698;48.072;7.800;2022-08-30T00:16:24;99498.13;;;18.36;84.91
63552;BME280;49698;48.072;7.800;2022-08-30T00:18:52;99499.59;;;18.33;84.96
63552;BME280;49698;48.072;7.800;2022-08-30T00:21:21;99502.97;;;18.30;85.01
63552;BME280;49698;48.072;7.800;2022-08-30T00:23:49;99502.03;;;18.26;85.24
63552;BME280;49698;48.072;7.800;2022-08-30T00:26:17;99501.91;;;18.23;85.37
63552;BME280;49698;48.072;7.800;2022-08-30T00:28:45;99509.91;;;18.19;85.61
63552;BME280;49698;48.072;7.800;2022-08-30T00:31:14;99500.38;;;18.13;85.66
63552;BME280;49698;48.072;7.800;2022-08-30T00:33:42;99507.59;;;18.09;85.59
63552;BME280;49698;48.072;7.800;2022-08-30T00:36:10;99505.53;;;18.06;85.82
63552;BME280;49698;48.072;7.800;2022-08-30T00:38:38;99503.16;;;18.04;86.04
63552;BME280;49698;48.072;7.800;2022-08-30T00:41:06;99491.81;;;18.02;86.13
63552;BME280;49698;48.072;7.800;2022-08-30T00:43:35;99500.75;;;18.03;86.04
63552;BME280;49698;48.072;7.800;2022-08-30T00:46:04;99499.16;;;18.02;86.17
63552;BME280;49698;48.072;7.800;2022-08-30T00:48:39;99504.59;;;18.02;86.22
63552;BME280;49698;48.072;7.800;2022-08-30T00:51:10;99495.31;;;18.03;86.26
63552;BME280;49698;48.072;7.800;2022-08-30T00:53:42;99491.81;;;18.02;86.37
63552;BME280;49698;48.072;7.800;2022-08-30T00:56:11;99496.44;;;18.02;86.34
63552;BME280;49698;48.072;7.800;2022-08-30T00:58:43;99490.53;;;18.00;86.46
63552;BME280;49698;48.072;7.800;2022-08-30T01:01:12;99494.38;;;17.99;86.50
63552;BME280;49698;48.072;7.800;2022-08-30T01:03:42;99490.06;;;17.98;86.63
63552;BME280;49698;48.072;7.800;2022-08-30T01:06:11;99487.34;;;17.98;86.52
63552;BME280;49698;48.072;7.800;2022-08-30T01:08:40;99496.66;;;17.97;86.46
63552;BME280;49698;48.072;7.800;2022-08-30T01:11:09;99497.75;;;17.96;86.50
63552;BME280;49698;48.072;7.800;2022-08-30T01:13:38;99500.47;;;17.96;86.42
63552;BME280;49698;48.072;7.800;2022-08-30T01:16:06;99498.88;;;17.95;86.39
63552;BME280;49698;48.072;7.800;2022-08-30T01:18:34;99503.38;;;17.91;86.44
63552;BME280;49698;48.072;7.800;2022-08-30T01:21:09;99507.09;;;17.86;86.25
63552;BME280;49698;48.072;7.800;2022-08-30T01:23:42;99510.81;;;17.81;86.40
63552;BME280;49698;48.072;7.800;2022-08-30T01:26:12;99509.88;;;17.77;86.68
63552;BME280;49698;48.072;7.800;2022-08-30T01:28:40;99502.34;;;17.74;86.58
63552;BME280;49698;48.072;7.800;2022-08-30T01:31:08;99501.84;;;17.72;86.69
63552;BME280;49698;48.072;7.800;2022-08-30T01:33:36;99507.16;;;17.69;86.68
63552;BME280;49698;48.072;7.800;2022-08-30T01:36:07;99505.09;;;17.66;86.58
63552;BME280;49698;48.072;7.800;2022-08-30T01:38:42;99499.97;;;17.64;86.79
63552;BME280;49698;48.072;7.800;2022-08-30T01:41:14;99508.31;;;17.59;86.85
63552;BME280;49698;48.072;7.800;2022-08-30T01:43:43;99499.22;;;17.55;87.09
63552;BME280;49698;48.072;7.800;2022-08-30T01:46:12;99501.81;;;17.51;87.17
63552;BME280;49698;48.072;7.800;2022-08-30T01:48:41;99509.81;;;17.48;87.59
63552;BME280;49698;48.072;7.800;2022-08-30T01:51:11;99507.44;;;17.46;87.39
63552;BME280;49698;48.072;7.800;2022-08-30T01:53:43;99505.34;;;17.43;87.40
63552;BME280;49698;48.072;7.800;2022-08-30T01:56:12;99508.38;;;17.42;87.30
63552;BME280;49698;48.072;7.800;2022-08-30T01:58:41;99511.59;;;17.44;87.26
63552;BME280;49698;48.072;7.800;2022-08-30T02:01:12;99510.00;;;17.43;87.27
63552;BME280;49698;48.072;7.800;2022-08-30T02:03:42;99508.38;;;17.42;87.09
63552;BME280;49698;48.072;7.800;2022-08-30T02:06:13;99506.78;;;17.41;87.11
63552;BME280;49698;48.072;7.800;2022-08-30T02:08:43;99508.22;;;17.38;87.18
63552;BME280;49698;48.072;7.800;2022-08-30T02:11:12;99510.50;;;17.36;87.32
63552;BME280;49698;48.072;7.800;2022-08-30T02:13:42;99508.41;;;17.33;87.33
63552;BME280;49698;48.072;7.800;2022-08-30T02:16:12;99510.34;;;17.32;87.26
63552;BME280;49698;48.072;7.800;2022-08-30T02:18:42;99508.75;;;17.31;87.27
63552;BME280;49698;48.072;7.800;2022-08-30T02:21:11;99505.53;;;17.29;87.52
63552;BME280;49698;48.072;7.800;2022-08-30T02:23:39;99497.72;;;17.28;87.54
63552;BME280;49698;48.072;7.800;2022-08-30T02:26:09;99501.09;;;17.25;87.50
63552;BME280;49698;48.072;7.800;2022-08-30T02:28:38;99490.41;;;17.20;87.52
63552;BME280;49698;48.072;7.800;2022-08-30T02:31:06;99500.34;;;17.16;87.43
63552;BME280;49698;48.072;7.800;2022-08-30T02:33:34;99493.13;;;17.11;87.64
63552;BME280;49698;48.072;7.800;2022-08-30T02:36:04;99492.19;;;17.07;87.77
63552;BME280;49698;48.072;7.800;2022-08-30T02:38:32;99494.09;;;17.06;87.67
63552;BME280;49698;48.072;7.800;2022-08-30T02:41:00;99487.88;;;17.06;87.77
63552;BME280;49698;48.072;7.800;2022-08-30T02:43:29;99481.66;;;17.05;87.88
63552;BME280;49698;48.072;7.800;2022-08-30T02:45:58;99485.16;;;17.06;87.53
63552;BME280;49698;48.072;7.800;2022-08-30T02:48:26;99476.56;;;17.04;87.91
63552;BME280;49698;48.072;7.800;2022-08-30T02:50:54;99475.75;;;17.03;87.57
63552;BME280;49698;48.072;7.800;2022-08-30T02:53:22;99478.78;;;17.02;87.49
63552;BME280;49698;48.072;7.800;2022-08-30T02:55:50;99467.94;;;17.02;87.56
63552;BME280;49698;48.072;7.800;2022-08-30T02:58:17;99465.41;;;16.97;87.59
63552;BME280;49698;48.072;7.800;2022-08-30T03:00:47;99466.81;;;16.94;87.71
63552;BME280;49698;48.072;7.800;2022-08-30T03:03:15;99469.09;;;16.92;87.79
63552;BME280;49698;48.072;7.800;2022-08-30T03:05:43;99467.81;;;16.90;87.83
63552;BME280;49698;48.072;7.800;2022-08-30T03:08:11;99475.00;;;16.85;87.76
63552;BME280;49698;48.072;7.800;2022-08-30T03:10:39;99480.13;;;16.78;87.86
63552;BME280;49698;48.072;7.800;2022-08-30T03:13:07;99480.91;;;16.70;88.04
63552;BME280;49698;48.072;7.800;2022-08-30T03:15:37;99477.06;;;16.62;88.31
63552;BME280;49698;48.072;7.800;2022-08-30T03:18:07;99472.91;;;16.56;88.22
63552;BME280;49698;48.072;7.800;2022-08-30T03:20:36;99475.47;;;16.53;88.19
63552;BME280;49698;48.072;7.800;2022-08-30T03:23:05;99477.22;;;16.49;88.27
63552;BME280;49698;48.072;7.800;2022-08-30T03:25:32;99478.53;;;16.43;88.38
63552;BME280;49698;48.072;7.800;2022-08-30T03:28:01;99477.09;;;16.36;88.38
63552;BME280;49698;48.072;7.800;2022-08-30T03:30:29;99481.09;;;16.30;88.29
63552;BME280;49698;48.072;7.800;2022-08-30T03:32:58;99470.88;;;16.27;88.61
63552;BME280;49698;48.072;7.800;2022-08-30T03:35:27;99473.09;;;16.25;88.71
63552;BME280;49698;48.072;7.800;2022-08-30T03:37:57;99473.09;;;16.25;88.64
63552;BME280;49698;48.072;7.800;2022-08-30T03:40:25;99474.22;;;16.24;88.54
63552;BME280;49698;48.072;7.800;2022-08-30T03:42:53;99471.34;;;16.21;88.57
63552;BME280;49698;48.072;7.800;2022-08-30T03:45:21;99483.31;;;16.20;88.50
63552;BME280;49698;48.072;7.800;2022-08-30T03:47:49;99478.50;;;16.17;88.60
63552;BME280;49698;48.072;7.800;2022-08-30T03:50:17;99472.59;;;16.14;88.69
63552;BME280;49698;48.072;7.800;2022-08-30T03:52:46;99480.25;;;16.12;88.59
63552;BME280;49698;48.072;7.800;2022-08-30T03:55:14;99485.69;;;16.12;88.45
63552;BME280;49698;48.072;7.800;2022-08-30T03:57:42;99495.09;;;16.15;88.52
63552;BME280;49698;48.072;7.800;2022-08-30T04:00:11;99494.00;;;16.16;88.43
63552;BME280;49698;48.072;7.800;2022-08-30T04:02:40;99501.31;;;16.16;88.59
63552;BME280;49698;48.072;7.800;2022-08-30T04:05:09;99506.91;;;16.19;88.37
63552;BME280;49698;48.072;7.800;2022-08-30T04:07:37;99504.38;;;16.23;88.32
63552;BME280;49698;48.072;7.800;2022-08-30T04:10:08;99501.81;;;16.26;88.26
63552;BME280;49698;48.072;7.800;2022-08-30T04:12:36;99493.34;;;16.28;88.17
63552;BME280;49698;48.072;7.800;2022-08-30T04:15:05;99482.50;;;16.28;88.15
63552;BME280;49698;48.072;7.800;2022-08-30T04:17:35;99478.69;;;16.29;88.28
63552;BME280;49698;48.072;7.800;2022-08-30T04:20:03;99481.72;;;16.27;88.24
63552;BME280;49698;48.072;7.800;2022-08-30T04:22:31;99489.34;;;16.25;88.43
63552;BME280;49698;48.072;7.800;2022-08-30T04:24:59;99490.81;;;16.23;88.41
63552;BME280;49698;48.072;7.800;2022-08-30T04:27:28;99490.00;;;16.22;88.54
63552;BME280;49698;48.072;7.800;2022-08-30T04:29:57;99487.59;;;16.21;88.58
63552;BME280;49698;48.072;7.800;2022-08-30T04:32:25;99489.53;;;16.20;88.74
63552;BME280;49698;48.072;7.800;2022-08-30T04:34:55;99475.47;;;16.18;88.81
63552;BME280;49698;48.072;7.800;2022-08-30T04:37:24;99477.38;;;16.18;89.00
63552;BME280;49698;48.072;7.800;2022-08-30T04:39:54;99481.22;;;16.17;89.15
63552;BME280;49698;48.072;7.800;2022-08-30T04:42:23;99488.88;;;16.14;88.89
63552;BME280;49698;48.072;7.800;2022-08-30T04:44:52;99485.34;;;16.14;88.88
63552;BME280;49698;48.072;7.800;2022-08-30T04:47:20;99495.09;;;16.15;88.77
63552;BME280;49698;48.072;7.800;2022-08-30T04:49:48;99495.56;;;16.17;88.85
63552;BME280;49698;48.072;7.800;2022-08-30T04:52:16;99491.75;;;16.18;88.74
63552;BME280;49698;48.072;7.800;2022-08-30T04:54:44;99501.50;;;16.19;88.83
63552;BME280;49698;48.072;7.800;2022-08-30T04:57:12;99513.13;;;16.20;88.65
63552;BME280;49698;48.072;7.800;2022-08-30T04:59:40;99501.50;;;16.19;88.58
63552;BME280;49698;48.072;7.800;2022-08-30T05:02:09;99502.13;;;16.16;88.68
63552;BME280;49698;48.072;7.800;2022-08-30T05:04:40;99499.25;;;16.12;88.57
63552;BME280;49698;48.072;7.800;2022-08-30T05:07:29;99505.63;;;16.08;88.45
63552;BME280;49698;48.072;7.800;2022-08-30T05:09:58;99501.31;;;16.07;88.30
63552;BME280;49698;48.072;7.800;2022-08-30T05:12:26;99506.56;;;16.03;88.51
63552;BME280;49698;48.072;7.800;2022-08-30T05:14:54;99511.50;;;16.01;88.49
63552;BME280;49698;48.072;7.800;2022-08-30T05:17:25;99508.47;;;16.03;88.20
63552;BME280;49698;48.072;7.800;2022-08-30T05:19:53;99512.16;;;16.07;87.95
63552;BME280;49698;48.072;7.800;2022-08-30T05:22:21;99511.03;;;16.08;87.89
63552;BME280;49698;48.072;7.800;2022-08-30T05:24:49;99518.22;;;16.12;87.57
63552;BME280;49698;48.072;7.800;2022-08-30T05:27:16;99527.31;;;16.17;87.51
63552;BME280;49698;48.072;7.800;2022-08-30T05:29:44;99520.16;;;16.21;87.18
63552;BME280;49698;48.072;7.800;2022-08-30T05:32:12;99520.31;;;16.24;87.11
63552;BME280;49698;48.072;7.800;2022-08-30T05:34:41;99514.44;;;16.31;86.86
63552;BME280;49698;48.072;7.800;2022-08-30T05:37:09;99519.34;;;16.37;86.50
63552;BME280;49698;48.072;7.800;2022-08-30T05:39:37;99527.81;;;16.45;86.16
63552;BME280;49698;48.072;7.800;2022-08-30T05:42:05;99524.31;;;16.53;86.01
63552;BME280;49698;48.072;7.800;2022-08-30T05:44:33;99529.09;;;16.64;85.74
63552;BME280;49698;48.072;7.800;2022-08-30T05:47:01;99533.28;;;16.79;85.26
63552;BME280;49698;48.072;7.800;2022-08-30T05:49:29;99533.91;;;16.94;84.73
63552;BME280;49698;48.072;7.800;2022-08-30T05:51:58;99532.63;;;17.08;84.48
63552;BME280;49698;48.072;7.800;2022-08-30T05:54:26;99532.41;;;17.22;83.87
63552;BME280;49698;48.072;7.800;2022-08-30T05:56:54;99524.38;;;17.34;83.57
63552;BME280;49698;48.072;7.800;2022-08-30T05:59:22;99528.03;;;17.47;83.15
63552;BME280;49698;48.072;7.800;2022-08-30T06:01:55;99528.47;;;17.58;82.93
63552;BME280;49698;48.072;7.800;2022-08-30T06:04:24;99522.22;;;17.66;82.69
63552;BME280;49698;48.072;7.800;2022-08-30T06:06:52;99517.53;;;17.75;82.66
63552;BME280;49698;48.072;7.800;2022-08-30T06:09:21;99515.13;;;17.82;82.61
63552;BME280;49698;48.072;7.800;2022-08-30T06:11:49;99514.91;;;17.88;82.47
63552;BME280;49698;48.072;7.800;2022-08-30T06:14:17;99508.84;;;17.91;82.36
63552;BME280;49698;48.072;7.800;2022-08-30T06:16:45;99513.63;;;17.94;82.18
63552;BME280;49698;48.072;7.800;2022-08-30T06:19:14;99505.91;;;17.96;82.27
63552;BME280;49698;48.072;7.800;2022-08-30T06:21:43;99515.00;;;18.00;81.68
63552;BME280;49698;48.072;7.800;2022-08-30T06:24:13;99515.63;;;18.05;81.50
63552;BME280;49698;48.072;7.800;2022-08-30T06:26:44;99517.34;;;18.10;81.57
63552;BME280;49698;48.072;7.800;2022-08-30T06:29:16;99522.59;;;18.15;81.28
63552;BME280;49698;48.072;7.800;2022-08-30T06:31:45;99523.22;;;18.21;80.91
63552;BME280;49698;48.072;7.800;2022-08-30T06:34:13;99522.22;;;18.25;80.29
63552;BME280;49698;48.072;7.800;2022-08-30T06:36:41;99519.09;;;18.36;79.62
63552;BME280;49698;48.072;7.800;2022-08-30T06:39:10;99525.63;;;18.43;78.71
63552;BME280;49698;48.072;7.800;2022-08-30T06:41:39;99521.91;;;18.48;77.86
63552;BME280;49698;48.072;7.800;2022-08-30T06:44:27;99521.03;;;18.56;77.22
63552;BME280;49698;48.072;7.800;2022-08-30T06:46:55;99520.16;;;18.64;76.80
63552;BME280;49698;48.072;7.800;2022-08-30T06:49:23;99523.16;;;18.71;76.26
63552;BME280;49698;48.072;7.800;2022-08-30T06:51:52;99516.72;;;18.76;76.00
63552;BME280;49698;48.072;7.800;2022-08-30T06:54:20;99502.56;;;18.83;75.49
63552;BME280;49698;48.072;7.800;2022-08-30T06:56:48;99511.66;;;18.87;75.10
63552;BME280;49698;48.072;7.800;2022-08-30T06:59:25;99521.88;;;18.90;74.66
63552;BME280;49698;48.072;7.800;2022-08-30T07:01:54;99519.75;;;18.95;74.35
63552;BME280;49698;48.072;7.800;2022-08-30T07:04:23;99523.25;;;18.96;74.11
63552;BME280;49698;48.072;7.800;2022-08-30T07:06:52;99521.19;;;18.93;73.97
63552;BME280;49698;48.072;7.800;2022-08-30T07:09:20;99523.25;;;18.96;73.91
63552;BME280;49698;48.072;7.800;2022-08-30T07:11:48;99526.91;;;19.00;73.74
63552;BME280;49698;48.072;7.800;2022-08-30T07:14:16;99526.72;;;19.05;73.50
63552;BME280;49698;48.072;7.800;2022-08-30T07:16:44;99522.50;;;19.08;73.24
63552;BME280;49698;48.072;7.800;2022-08-30T07:19:14;99514.66;;;19.06;73.10
63552;BME280;49698;48.072;7.800;2022-08-30T07:21:42;99522.50;;;19.08;73.19
63552;BME280;49698;48.072;7.800;2022-08-30T07:24:11;99514.44;;;19.11;72.83
63552;BME280;49698;48.072;7.800;2022-08-30T07:26:41;99510.81;;;19.19;72.66
63552;BME280;49698;48.072;7.800;2022-08-30T07:29:09;99517.78;;;19.29;72.09
63552;BME280;49698;48.072;7.800;2022-08-30T07:31:37;99511.44;;;19.37;71.83
63552;BME280;49698;48.072;7.800;2022-08-30T07:34:07;99514.72;;;19.43;71.46
63552;BME280;49698;48.072;7.800;2022-08-30T07:36:37;99514.28;;;19.53;71.01
63552;BME280;49698;48.072;7.800;2022-08-30T07:39:06;99513.41;;;19.73;70.38
63552;BME280;49698;48.072;7.800;2022-08-30T07:41:36;99518.97;;;19.89;69.98
63552;BME280;49698;48.072;7.800;2022-08-30T07:44:05;99516.25;;;20.01;69.58
63552;BME280;49698;48.072;7.800;2022-08-30T07:46:34;99520.66;;;20.18;69.18
63552;BME280;49698;48.072;7.800;2022-08-30T07:49:04;99522.09;;;20.40;68.63
63552;BME280;49698;48.072;7.800;2022-08-30T07:51:32;99529.25;;;20.57;68.08
63552;BME280;49698;48.072;7.800;2022-08-30T07:54:02;99525.44;;;20.74;67.61
63552;BME280;49698;48.072;7.800;2022-08-30T07:56:30;99529.47;;;21.08;66.77
63552;BME280;49698;48.072;7.800;2022-08-30T07:58:58;99526.56;;;21.61;65.30
63552;BME280;49698;48.072;7.800;2022-08-30T08:01:26;99525.44;;;22.13;63.71
63552;BME280;49698;48.072;7.800;2022-08-30T08:03:54;99529.91;;;22.56;62.19
63552;BME280;49698;48.072;7.800;2022-08-30T08:06:22;99523.28;;;22.77;61.35
63552;BME280;49698;48.072;7.800;2022-08-30T08:08:50;99528.47;;;22.82;61.01
63552;BME280;49698;48.072;7.800;2022-08-30T08:11:22;99524.44;;;22.76;61.01
63552;BME280;49698;48.072;7.800;2022-08-30T08:13:52;99532.09;;;22.66;61.25
63552;BME280;49698;48.072;7.800;2022-08-30T08:16:22;99532.66;;;22.76;61.01
63552;BME280;49698;48.072;7.800;2022-08-30T08:18:51;99527.31;;;22.83;60.62
63552;BME280;49698;48.072;7.800;2022-08-30T08:21:20;99529.84;;;22.91;60.47
63552;BME280;49698;48.072;7.800;2022-08-30T08:23:49;99526.91;;;23.00;60.22
63552;BME280;49698;48.072;7.800;2022-08-30T08:26:17;99521.53;;;23.07;59.66
63552;BME280;49698;48.072;7.800;2022-08-30T08:28:47;99521.59;;;23.11;59.61
63552;BME280;49698;48.072;7.800;2022-08-30T08:31:18;99519.72;;;23.15;59.08
63552;BME280;49698;48.072;7.800;2022-08-30T08:33:47;99515.06;;;23.15;59.16
63552;BME280;49698;48.072;7.800;2022-08-30T08:36:15;99508.81;;;23.18;58.86
63552;BME280;49698;48.072;7.800;2022-08-30T08:38:44;99500.66;;;23.22;58.88
63552;BME280;49698;48.072;7.800;2022-08-30T08:41:20;99505.97;;;23.34;58.39
63552;BME280;49698;48.072;7.800;2022-08-30T08:43:54;99506.72;;;23.54;58.10
63552;BME280;49698;48.072;7.800;2022-08-30T08:46:27;99515.47;;;23.63;57.73
63552;BME280;49698;48.072;7.800;2022-08-30T08:49:00;99511.38;;;23.77;57.78
63552;BME280;49698;48.072;7.800;2022-08-30T08:51:32;99504.75;;;23.78;57.50
63552;BME280;49698;48.072;7.800;2022-08-30T08:54:21;99505.28;;;23.87;57.56
63552;BME280;49698;48.072;7.800;2022-08-30T08:56:52;99506.56;;;23.93;57.40
63552;BME280;49698;48.072;7.800;2022-08-30T08:59:21;99499.34;;;23.85;57.68
63552;BME280;49698;48.072;7.800;2022-08-30T09:01:50;99501.34;;;23.88;57.38
63552;BME280;49698;48.072;7.800;2022-08-30T09:04:21;99510.19;;;24.01;56.85
63552;BME280;49698;48.072;7.800;2022-08-30T09:06:54;99497.88;;;24.17;56.44
63552;BME280;49698;48.072;7.800;2022-08-30T09:09:26;99492.88;;;24.27;56.03
63552;BME280;49698;48.072;7.800;2022-08-30T09:11:56;99492.78;;;24.20;55.84
63552;BME280;49698;48.072;7.800;2022-08-30T09:14:28;99497.13;;;24.21;56.00
63552;BME280;49698;48.072;7.800;2022-08-30T09:16:59;99496.66;;;24.15;56.30
63552;BME280;49698;48.072;7.800;2022-08-30T09:19:37;99495.41;;;24.09;56.41
63552;BME280;49698;48.072;7.800;2022-08-30T09:22:14;99490.25;;;24.07;56.13
63552;BME280;49698;48.072;7.800;2022-08-30T09:24:45;99487.94;;;24.09;56.27
63552;BME280;49698;48.072;7.800;2022-08-30T09:27:21;99492.28;;;24.10;56.12
63552;BME280;49698;48.072;7.800;2022-08-30T09:30:00;99494.63;;;24.12;55.88
63552;BME280;49698;48.072;7.800;2022-08-30T09:32:31;99495.84;;;24.14;55.64
63552;BME280;49698;48.072;7.800;2022-08-30T09:35:02;99488.84;;;24.17;55.79
63552;BME280;49698;48.072;7.800;2022-08-30T09:37:34;99484.13;;;24.17;55.86
63552;BME280;49698;48.072;7.800;2022-08-30T09:40:14;99479.44;;;24.18;55.82
63552;BME280;49698;48.072;7.800;2022-08-30T09:42:58;99482.59;;;24.20;55.66
63552;BME280;49698;48.072;7.800;2022-08-30T09:45:33;99465.41;;;24.27;55.51
63552;BME280;49698;48.072;7.800;2022-08-30T09:48:30;99466.03;;;24.43;55.19
63552;BME280;49698;48.072;7.800;2022-08-30T09:51:14;99459.78;;;24.46;54.82
63552;BME280;49698;48.072;7.800;2022-08-30T09:53:51;99458.03;;;24.64;54.45
63552;BME280;49698;48.072;7.800;2022-08-30T09:56:49;99466.94;;;24.88;53.88
63552;BME280;49698;48.072;7.800;2022-08-30T09:59:38;99468.69;;;25.07;53.40
63552;BME280;49698;48.072;7.800;2022-08-30T10:02:38;99465.38;;;25.28;53.05
63552;BME280;49698;48.072;7.800;2022-08-30T10:05:15;99456.50;;;25.49;52.50
63552;BME280;49698;48.072;7.800;2022-08-30T10:07:53;99460.16;;;25.64;51.82
63552;BME280;49698;48.072;7.800;2022-08-30T10:10:30;99458.28;;;25.78;51.41
63552;BME280;49698;48.072;7.800;2022-08-30T10:13:05;99458.41;;;25.96;50.77
63552;BME280;49698;48.072;7.800;2022-08-30T10:15:45;99453.38;;;26.13;50.47
63552;BME280;49698;48.072;7.800;2022-08-30T10:18:21;99447.94;;;26.27;50.39
63552;BME280;49698;48.072;7.800;2022-08-30T10:20:57;99449.22;;;26.47;49.97
63552;BME280;49698;48.072;7.800;2022-08-30T10:23:33;99444.94;;;26.57;49.53
63552;BME280;49698;48.072;7.800;2022-08-30T10:26:09;99446.13;;;26.67;49.48
63552;BME280;49698;48.072;7.800;2022-08-30T10:28:43;99441.03;;;26.72;49.72
63552;BME280;49698;48.072;7.800;2022-08-30T10:31:13;99440.63;;;26.74;49.27
63552;BME280;49698;48.072;7.800;2022-08-30T10:33:50;99440.63;;;26.74;49.53
63552;BME280;49698;48.072;7.800;2022-08-30T10:36:25;99439.88;;;26.77;49.33
63552;BME280;49698;48.072;7.800;2022-08-30T10:38:54;99437.91;;;26.81;49.08
63552;BME280;49698;48.072;7.800;2022-08-30T10:41:31;99435.94;;;26.81;48.90
63552;BME280;49698;48.072;7.800;2022-08-30T10:44:07;99446.53;;;26.69;49.30
63552;BME280;49698;48.072;7.800;2022-08-30T10:46:45;99446.09;;;26.52;49.73
63552;BME280;49698;48.072;7.800;2022-08-30T10:49:18;99441.28;;;26.39;49.80
63552;BME280;49698;48.072;7.800;2022-08-30T10:51:49;99444.41;;;26.26;50.26
63552;BME280;49698;48.072;7.800;2022-08-30T10:54:26;99449.91;;;26.23;50.18
63552;BME280;49698;48.072;7.800;2022-08-30T10:56:58;99438.88;;;26.26;50.33
63552;BME280;49698;48.072;7.800;2022-08-30T10:59:27;99434.97;;;26.34;50.25
63552;BME280;49698;48.072;7.800;2022-08-30T11:02:19;99442.94;;;26.47;50.25
63552;BME280;49698;48.072;7.800;2022-08-30T11:07:57;99436.66;;;26.53;49.59
63552;BME280;49698;48.072;7.800;2022-08-30T11:10:38;99432.72;;;26.54;49.80
63552;BME280;49698;48.072;7.800;2022-08-30T11:13:11;99430.34;;;26.60;49.49
63552;BME280;49698;48.072;7.800;2022-08-30T11:15:54;99421.72;;;26.69;48.74
63552;BME280;49698;48.072;7.800;2022-08-30T11:18:26;99420.59;;;26.88;48.71
63552;BME280;49698;48.072;7.800;2022-08-30T11:21:20;99424.91;;;27.10;48.46
63552;BME280;49698;48.072;7.800;2022-08-30T11:24:01;99421.00;;;27.33;48.12
63552;BME280;49698;48.072;7.800;2022-08-30T11:26:50;99420.22;;;27.53;47.39
63552;BME280;49698;48.072;7.800;2022-08-30T11:29:37;99414.66;;;27.75;47.29
63552;BME280;49698;48.072;7.800;2022-08-30T11:35:42;99410.53;;;28.22;46.37
63552;BME280;49698;48.072;7.800;2022-08-30T11:38:58;99406.16;;;28.32;45.98
63552;BME280;49698;48.072;7.800;2022-08-30T11:41:32;99411.31;;;28.26;46.13
63552;BME280;49698;48.072;7.800;2022-08-30T11:44:26;99403.88;;;28.13;46.05
63552;BME280;49698;48.072;7.800;2022-08-30T11:46:55;99405.94;;;27.94;46.53
63552;BME280;49698;48.072;7.800;2022-08-30T11:49:51;99399.66;;;27.76;46.90
63552;BME280;49698;48.072;7.800;2022-08-30T11:52:39;99400.03;;;27.71;47.04
63552;BME280;49698;48.072;7.800;2022-08-30T11:58:18;99395.31;;;27.71;47.62
63552;BME280;49698;48.072;7.800;2022-08-30T12:01:12;99384.28;;;27.75;47.33
63552;BME280;49698;48.072;7.800;2022-08-30T12:03:56;99387.81;;;27.86;47.32
63552;BME280;49698;48.072;7.800;2022-08-30T12:06:44;99382.66;;;27.92;46.91
63552;BME280;49698;48.072;7.800;2022-08-30T12:12:52;99378.25;;;28.09;46.65
63552;BME280;49698;48.072;7.800;2022-08-30T12:18:41;99372.75;;;28.05;46.65
63552;BME280;49698;48.072;7.800;2022-08-30T12:21:13;99364.81;;;28.11;46.67
63552;BME280;49698;48.072;7.800;2022-08-30T12:23:56;99369.50;;;28.21;46.56
63552;BME280;49698;48.072;7.800;2022-08-30T12:26:32;99355.25;;;28.26;46.63
63552;BME280;49698;48.072;7.800;2022-08-30T12:29:12;99357.22;;;28.29;46.70
63552;BME280;49698;48.072;7.800;2022-08-30T12:31:43;99359.19;;;28.32;46.52
63552;BME280;49698;48.072;7.800;2022-08-30T12:34:22;99359.94;;;28.36;46.67
63552;BME280;49698;48.072;7.800;2022-08-30T12:36:55;99355.22;;;28.40;46.87
63552;BME280;49698;48.072;7.800;2022-08-30T12:39:26;99354.41;;;28.43;47.01
63552;BME280;49698;48.072;7.800;2022-08-30T12:41:55;99346.44;;;28.52;46.87
63552;BME280;49698;48.072;7.800;2022-08-30T12:44:27;99351.50;;;28.61;46.23
63552;BME280;49698;48.072;7.800;2022-08-30T12:46:57;99345.16;;;28.68;45.99
63552;BME280;49698;48.072;7.800;2022-08-30T12:49:34;99350.28;;;28.69;45.71
63552;BME280;49698;48.072;7.800;2022-08-30T12:52:19;99333.69;;;28.69;45.96
63552;BME280;49698;48.072;7.800;2022-08-30T12:54:49;99338.41;;;28.69;45.71
63552;BME280;49698;48.072;7.800;2022-08-30T12:57:36;99328.94;;;28.70;45.63
63552;BME280;49698;48.072;7.800;2022-08-30T13:00:07;99324.22;;;28.67;45.76
63552;BME280;49698;48.072;7.800;2022-08-30T13:02:45;99326.97;;;28.67;45.88
63552;BME280;49698;48.072;7.800;2022-08-30T13:05:32;99325.41;;;28.66;45.59
63552;BME280;49698;48.072;7.800;2022-08-30T13:08:09;99314.34;;;28.66;45.85
63552;BME280;49698;48.072;7.800;2022-08-30T13:10:48;99318.69;;;28.67;45.67
63552;BME280;49698;48.072;7.800;2022-08-30T13:13:30;99316.72;;;28.67;45.80
63552;BME280;49698;48.072;7.800;2022-08-30T13:18:51;99311.19;;;28.67;45.91
63552;BME280;49698;48.072;7.800;2022-08-30T13:21:23;99301.63;;;28.75;45.48
63552;BME280;49698;48.072;7.800;2022-08-30T13:23:55;99286.53;;;28.84;45.28
63552;BME280;49698;48.072;7.800;2022-08-30T13:26:24;99282.91;;;28.90;44.91
63552;BME280;49698;48.072;7.800;2022-08-30T13:28:53;99272.59;;;28.98;44.87
63552;BME280;49698;48.072;7.800;2022-08-30T13:31:24;99273.31;;;29.06;44.71
63552;BME280;49698;48.072;7.800;2022-08-30T13:33:53;99257.00;;;29.15;44.52
63552;BME280;49698;48.072;7.800;2022-08-30T13:36:24;99263.59;;;29.28;44.14
63552;BME280;49698;48.072;7.800;2022-08-30T13:38:55;99256.38;;;29.34;43.84
63552;BME280;49698;48.072;7.800;2022-08-30T13:41:24;99248.47;;;29.36;43.63
63552;BME280;49698;48.072;7.800;2022-08-30T13:43:52;99246.44;;;29.40;43.55